Yoder, WY (82244)

6:26 PM MST on January 28, 2015 (GMT -0700)
Cherry Creek | Change Station
CLOSE
Current Station
Personal Weather Station
Location: Veteran, WY
Elevation: 4249 ft
Nearby Weather Stations

Elev 4249 ft 41.99 °N, 104.40 °W | Updated 6 minutes ago

Overcast
Overcast
42.9 °F
Feels Like 40 °F
N
5.0
Wind Variable Wind from NW
Gusts 6.0 mph

Today
High -- | Low -- °F
--% Chance of Precip.
Yesterday
High -- | Low -- °F
Precip. -- in
7:14 AM 5:07 PM
Waxing Gibbous, 69% visible
Pressure 30.15 in
Visibility 10.0 miles
Clouds Clear
Windchill 40 °F
Dew Point 35 °F
Humidity 74%
Rainfall 0.00 in
Snow Depth Not available.
UV 0 out of 12
Pollen 2.30 out of 12
Air Quality Not available.
Flu Activity Not available.
METAR KTOR 290053Z AUTO 29011KT 10SM CLR 06/02 A3015 RMK AO2 SLP208 T00560017

More Conditions Fewer Conditions

Pressure 30.15 in
Visibility 10.0 miles
Clouds Clear
Windchill 40 °F
Dew Point 35 °F
Humidity 74%
Rainfall 0.00 in
Snow Depth Not available.
UV 0 out of 12
Pollen 2.30 out of 12
Air Quality Not available.
Flu Activity Not available.
METAR KTOR 290053Z AUTO 29011KT 10SM CLR 06/02 A3015 RMK AO2 SLP208 T00560017

More Conditions Fewer Conditions

10-Day Weather Forecast

Almanac

Astronomy

Jan. 28, 2015 Rise Set
Actual Time
Civil Twilight
Nautical Twilight
Astronomical Twilight
Moon
Length of Visible Light
Length of Day
Tomorrow will be .
, % of the Moon is Illuminated

Today's Extremes

State Highs State Lows

Community

WunderPhotos

Upload Photos

1,791,314 photos uploaded!

WunderBlogs® & News

Nearby

Air Quality

  Air Quality AQ Index Pollutant
Not available.

Snow Depth

Station Depth Elevation

Earthquake Activity

City Distance Mag. Time & Date
Minimum magnitude displayed is 2.5.

Coastal Water Temperatures

Place Temperature

Nearby Weather Stations